createdAt,value
2017-12-01T00:00:53.709Z,6.37
2017-12-01T00:03:22.084Z,6.10
2017-12-01T00:05:50.478Z,5.97
2017-12-01T00:08:18.845Z,4.47
2017-12-01T00:10:47.182Z,4.73
2017-12-01T00:13:15.513Z,5.73
2017-12-01T00:15:43.910Z,5.10
2017-12-01T00:18:12.390Z,5.47
2017-12-01T00:20:40.728Z,4.90
2017-12-01T00:23:09.717Z,4.57
2017-12-01T00:25:38.107Z,4.80
2017-12-01T00:28:06.508Z,4.43
2017-12-01T00:30:34.857Z,3.87
2017-12-01T00:33:03.222Z,4.47
2017-12-01T00:35:31.585Z,4.27
2017-12-01T00:37:59.933Z,3.77
2017-12-01T00:40:28.268Z,4.17
2017-12-01T00:42:56.608Z,3.70
2017-12-01T00:45:24.921Z,4.23
2017-12-01T00:47:53.334Z,3.40
2017-12-01T00:50:21.657Z,4.40
2017-12-01T00:52:50.008Z,3.70
2017-12-01T00:55:18.329Z,3.93
2017-12-01T00:57:46.675Z,3.63
2017-12-01T01:00:15.023Z,3.70
2017-12-01T01:02:43.338Z,3.33
2017-12-01T01:05:11.742Z,3.23
2017-12-01T01:07:40.062Z,3.53
2017-12-01T01:10:08.392Z,3.33
2017-12-01T01:12:36.757Z,3.67
2017-12-01T01:15:05.097Z,3.20
2017-12-01T01:17:33.441Z,2.93
2017-12-01T01:20:01.773Z,3.10
2017-12-01T01:22:30.111Z,4.10
2017-12-01T01:24:58.477Z,2.57
2017-12-01T01:27:26.841Z,3.27
2017-12-01T01:29:55.178Z,3.83
2017-12-01T01:32:23.593Z,3.50
2017-12-01T01:34:51.981Z,3.90
2017-12-01T01:37:20.423Z,4.80
2017-12-01T01:39:48.748Z,3.97
2017-12-01T01:42:17.100Z,5.97
2017-12-01T01:44:45.495Z,3.00
2017-12-01T01:47:13.832Z,4.37
2017-12-01T01:49:42.265Z,3.63
2017-12-01T01:52:10.617Z,3.53
2017-12-01T01:54:38.960Z,4.57
2017-12-01T01:57:08.097Z,4.10
2017-12-01T01:59:36.441Z,4.50
2017-12-01T02:02:04.856Z,4.40
2017-12-01T02:04:33.190Z,4.50
2017-12-01T02:07:01.544Z,5.30
2017-12-01T02:09:29.877Z,4.70
2017-12-01T02:11:58.234Z,6.17
2017-12-01T02:14:26.596Z,5.50
2017-12-01T02:16:54.928Z,5.60
2017-12-01T02:19:23.271Z,5.03
2017-12-01T02:21:51.707Z,5.60
2017-12-01T02:24:20.098Z,5.70
2017-12-01T02:26:48.511Z,5.90
2017-12-01T02:29:16.847Z,5.23
2017-12-01T02:31:45.337Z,5.97
2017-12-01T02:34:13.677Z,5.73
2017-12-01T02:36:42.046Z,6.10
2017-12-01T02:39:10.388Z,5.77
2017-12-01T02:41:38.709Z,7.20
2017-12-01T02:44:07.046Z,6.07
2017-12-01T02:46:35.405Z,6.97
2017-12-01T02:49:03.748Z,5.83
2017-12-01T02:51:32.102Z,6.63
2017-12-01T02:54:00.486Z,6.40
2017-12-01T02:56:28.804Z,6.90
2017-12-01T02:58:57.161Z,6.10
2017-12-01T03:01:25.517Z,7.10
2017-12-01T03:03:53.844Z,7.00
2017-12-01T03:06:22.226Z,7.63
2017-12-01T03:08:50.561Z,8.00
2017-12-01T03:11:18.872Z,6.70
2017-12-01T03:13:47.199Z,7.53
2017-12-01T03:16:15.524Z,7.57
2017-12-01T03:18:43.887Z,6.97
2017-12-01T03:21:12.232Z,6.80
2017-12-01T03:23:40.702Z,6.70
2017-12-01T03:26:09.336Z,6.80
2017-12-01T03:28:37.693Z,7.63
2017-12-01T03:31:06.032Z,6.13
2017-12-01T03:33:34.436Z,6.70
2017-12-01T03:36:02.794Z,6.93
2017-12-01T03:38:31.156Z,5.30
2017-12-01T03:40:59.546Z,5.80
2017-12-01T03:43:27.832Z,6.20
2017-12-01T03:45:56.188Z,5.13
2017-12-01T03:48:24.545Z,5.97
2017-12-01T03:50:52.857Z,6.50
2017-12-01T03:53:21.208Z,5.27
2017-12-01T03:55:49.533Z,5.17
2017-12-01T03:58:17.919Z,5.57
2017-12-01T04:00:46.256Z,4.17
2017-12-01T04:03:14.610Z,5.30
2017-12-01T04:05:42.945Z,4.73
2017-12-01T04:08:11.298Z,4.90
2017-12-01T04:10:39.659Z,4.87
2017-12-01T04:13:08.011Z,4.30
2017-12-01T04:15:36.378Z,4.07
2017-12-01T04:18:04.724Z,4.33
2017-12-01T04:20:33.033Z,4.97
2017-12-01T04:23:01.438Z,4.60
2017-12-01T04:25:29.782Z,4.30
2017-12-01T04:27:58.141Z,4.10
2017-12-01T04:30:26.518Z,4.77
2017-12-01T04:32:54.916Z,4.90
2017-12-01T04:35:23.258Z,4.30
2017-12-01T04:37:51.596Z,4.90
2017-12-01T04:40:20.004Z,5.17
2017-12-01T04:42:48.312Z,5.60
2017-12-01T04:45:16.630Z,4.43
2017-12-01T04:47:45.030Z,4.97
2017-12-01T04:50:13.373Z,5.60
2017-12-01T04:52:41.694Z,4.47
2017-12-01T04:55:10.087Z,4.97
2017-12-01T04:57:38.477Z,5.10
2017-12-01T05:00:07.005Z,4.57
2017-12-01T05:02:35.328Z,4.93
2017-12-01T05:05:03.664Z,4.70
2017-12-01T05:07:32.055Z,4.40
2017-12-01T05:10:00.403Z,4.50
2017-12-01T05:12:28.730Z,4.00
2017-12-01T05:14:57.058Z,3.83
2017-12-01T05:17:25.387Z,4.30
2017-12-01T05:19:53.729Z,4.20
2017-12-01T05:22:22.106Z,4.50
2017-12-01T05:24:50.468Z,4.47
2017-12-01T05:27:18.794Z,4.60
2017-12-01T05:29:47.240Z,4.97
2017-12-01T05:32:15.648Z,4.00
2017-12-01T05:34:44.170Z,3.73
2017-12-01T05:37:14.317Z,6.00
2017-12-01T05:39:42.644Z,4.83
2017-12-01T05:42:11.024Z,4.73
2017-12-01T05:44:39.488Z,4.80
2017-12-01T05:47:07.850Z,4.73
2017-12-01T05:49:36.715Z,4.43
2017-12-01T05:52:06.418Z,4.70
2017-12-01T05:54:34.872Z,5.33
2017-12-01T05:57:04.458Z,4.53
2017-12-01T05:59:33.586Z,3.93
2017-12-01T06:02:01.974Z,4.57
2017-12-01T06:04:30.422Z,3.80
2017-12-01T06:06:58.804Z,2.70
2017-12-01T06:09:27.706Z,4.30
2017-12-01T06:11:56.869Z,4.10
2017-12-01T06:14:27.260Z,5.23
2017-12-01T06:16:55.844Z,3.97
2017-12-01T06:19:24.326Z,3.23
2017-12-01T06:21:52.878Z,3.60
2017-12-01T06:24:21.585Z,4.05
2017-12-01T06:26:49.955Z,4.23
2017-12-01T06:29:19.277Z,4.20
2017-12-01T06:31:47.620Z,3.43
2017-12-01T06:34:30.367Z,4.53
2017-12-01T06:36:58.928Z,2.97
2017-12-01T06:39:27.501Z,4.50
2017-12-01T06:41:57.852Z,4.27
2017-12-01T06:44:26.234Z,3.93
2017-12-01T06:46:54.906Z,4.87
2017-12-01T06:54:38.398Z,4.40
2017-12-01T06:57:07.183Z,4.70
2017-12-01T06:59:35.909Z,4.60
2017-12-01T07:04:46.242Z,5.33
2017-12-01T07:07:14.742Z,4.40
2017-12-01T07:17:22.340Z,4.27
2017-12-01T07:19:51.007Z,4.27
2017-12-01T07:22:19.873Z,5.07
2017-12-01T07:29:58.813Z,3.90
2017-12-01T07:32:27.980Z,5.30
2017-12-01T07:37:29.932Z,3.97
2017-12-01T07:39:58.317Z,3.40
2017-12-01T07:42:26.780Z,3.70
2017-12-01T07:45:03.691Z,4.43
2017-12-01T07:47:33.981Z,4.20
2017-12-01T07:50:02.580Z,5.17
2017-12-01T07:52:31.112Z,5.43
2017-12-01T07:55:00.464Z,4.70
2017-12-01T07:57:29.091Z,4.63
2017-12-01T08:02:30.634Z,4.43
2017-12-01T08:05:05.608Z,5.40
2017-12-01T08:07:36.031Z,5.13
2017-12-01T08:10:07.710Z,5.57
2017-12-01T08:12:37.546Z,5.40
2017-12-01T08:15:08.887Z,5.10
2017-12-01T08:17:37.700Z,6.20
2017-12-01T08:20:06.169Z,6.30
2017-12-01T08:25:25.206Z,6.00
2017-12-01T08:27:56.107Z,7.23
2017-12-01T08:30:24.815Z,6.60
2017-12-01T08:32:53.398Z,6.33
2017-12-01T08:35:22.132Z,5.40
2017-12-01T08:37:50.586Z,5.93
2017-12-01T08:40:19.106Z,4.83
2017-12-01T08:42:49.207Z,4.77
2017-12-01T08:45:18.735Z,5.40
2017-12-01T08:50:19.788Z,6.27
2017-12-01T08:52:49.977Z,5.80
2017-12-01T08:55:18.511Z,7.30
2017-12-01T09:05:24.461Z,5.33
2017-12-01T09:07:52.945Z,4.40
2017-12-01T09:12:57.328Z,5.80
2017-12-01T09:15:26.186Z,5.10
2017-12-01T09:17:55.081Z,5.40
2017-12-01T09:20:23.633Z,3.87
2017-12-01T09:22:52.008Z,5.20
2017-12-01T09:25:20.473Z,4.87
2017-12-01T09:27:49.241Z,5.70
2017-12-01T09:30:17.745Z,6.67
2017-12-01T09:37:56.039Z,6.40
2017-12-01T09:50:37.280Z,7.13
2017-12-01T09:53:08.391Z,7.40
2017-12-01T09:55:36.827Z,6.13
2017-12-01T09:58:05.922Z,6.27
2017-12-01T10:00:34.395Z,6.40
2017-12-01T10:03:08.145Z,6.33
2017-12-01T10:05:37.818Z,6.90
2017-12-01T10:08:07.364Z,6.80
2017-12-01T10:10:37.536Z,5.90
2017-12-01T10:13:06.066Z,5.73
2017-12-01T10:15:34.811Z,5.30
2017-12-01T10:18:06.939Z,5.40
2017-12-01T10:20:35.318Z,4.83
2017-12-01T10:23:04.008Z,5.07
2017-12-01T10:25:32.944Z,5.00
2017-12-01T10:28:07.858Z,4.50
2017-12-01T10:30:38.785Z,4.50
2017-12-01T10:33:09.912Z,5.10
2017-12-01T10:40:47.241Z,4.57
2017-12-01T10:43:15.991Z,3.80
2017-12-01T10:45:50.299Z,4.10
2017-12-01T10:50:52.884Z,3.40
2017-12-01T10:55:55.897Z,3.20
2017-12-01T10:58:24.907Z,3.57
2017-12-01T11:00:53.666Z,4.80
2017-12-01T11:05:58.585Z,5.07
2017-12-01T11:11:00.059Z,3.90
2017-12-01T11:13:40.203Z,3.77
2017-12-01T11:18:41.692Z,5.37
2017-12-01T11:23:49.548Z,5.90
2017-12-01T11:26:22.466Z,5.00
2017-12-01T11:34:25.613Z,3.90
2017-12-01T11:36:56.046Z,4.70
2017-12-01T11:39:25.372Z,4.30
2017-12-01T11:44:27.935Z,4.97
2017-12-01T11:46:57.546Z,5.13
2017-12-01T11:49:26.315Z,5.00
2017-12-01T11:55:04.890Z,4.70
2017-12-01T11:57:37.123Z,4.10
2017-12-01T12:00:06.314Z,3.70
2017-12-01T12:07:50.797Z,3.93
2017-12-01T12:10:19.631Z,4.80
2017-12-01T12:15:26.731Z,3.83
2017-12-01T12:23:08.019Z,5.77
2017-12-01T12:28:28.643Z,4.07
2017-12-01T12:30:58.012Z,5.73
2017-12-01T12:35:58.992Z,5.00
2017-12-01T12:41:01.813Z,5.47
2017-12-01T12:54:27.590Z,6.47
2017-12-01T12:56:56.197Z,6.80
2017-12-01T13:01:57.366Z,5.93
2017-12-01T13:04:25.861Z,6.03
2017-12-01T13:06:54.364Z,5.60
2017-12-01T13:09:26.789Z,6.90
2017-12-01T13:11:55.428Z,6.37
2017-12-01T13:16:57.420Z,6.90
2017-12-01T13:22:06.287Z,5.63
2017-12-01T13:30:37.067Z,4.80
2017-12-01T13:33:06.007Z,6.53
2017-12-01T13:41:03.078Z,6.30
2017-12-01T13:43:31.541Z,7.77
2017-12-01T13:48:34.192Z,8.93
2017-12-01T13:51:02.615Z,10.20
2017-12-01T13:56:03.818Z,10.40
2017-12-01T13:58:32.750Z,10.50
2017-12-01T14:01:01.201Z,9.70
2017-12-01T14:06:04.326Z,11.03
2017-12-01T14:08:32.832Z,13.20
2017-12-01T14:11:01.343Z,11.60
2017-12-01T14:16:07.490Z,12.80
2017-12-01T14:18:35.997Z,12.43
2017-12-01T14:21:06.331Z,11.23
2017-12-01T14:23:35.991Z,11.57
2017-12-01T14:26:08.852Z,11.87
2017-12-01T14:28:37.518Z,11.93
2017-12-01T14:33:40.252Z,11.40
2017-12-01T14:36:09.254Z,12.83
2017-12-01T14:38:37.638Z,13.47
2017-12-01T14:41:07.549Z,11.93
2017-12-01T14:43:36.599Z,11.10
2017-12-01T14:48:45.161Z,11.50
2017-12-01T14:56:19.679Z,12.47
2017-12-01T14:58:48.115Z,12.50
2017-12-01T15:01:17.156Z,14.90
2017-12-01T15:03:47.216Z,15.30
2017-12-01T15:06:15.824Z,14.80
2017-12-01T15:08:45.276Z,15.47
2017-12-01T15:11:13.803Z,14.50
2017-12-01T15:13:43.596Z,14.40
2017-12-01T15:16:12.262Z,15.40
2017-12-01T15:18:40.708Z,16.30
2017-12-01T15:21:09.168Z,13.90
2017-12-01T15:34:37.281Z,14.00
2017-12-01T15:37:05.712Z,14.20
2017-12-01T15:39:37.136Z,17.63
2017-12-01T15:42:05.922Z,15.93
2017-12-01T15:44:34.506Z,15.17
2017-12-01T15:47:03.379Z,17.77
2017-12-01T15:49:31.912Z,17.00
2017-12-01T15:54:39.385Z,15.60
2017-12-01T16:00:00.955Z,15.80
2017-12-01T16:07:58.731Z,16.00
2017-12-01T16:13:01.851Z,15.63
2017-12-01T16:26:23.388Z,17.00
2017-12-01T16:28:56.825Z,18.27
2017-12-01T16:34:08.901Z,18.30
2017-12-01T16:36:39.210Z,20.30
2017-12-01T16:39:10.088Z,15.43
2017-12-01T16:41:39.811Z,16.40
2017-12-01T16:44:08.397Z,16.73
2017-12-01T16:46:37.734Z,17.67
2017-12-01T16:52:03.387Z,16.63
2017-12-01T16:54:35.677Z,16.50
2017-12-01T16:57:07.923Z,16.27
2017-12-01T16:59:37.205Z,17.97
2017-12-01T17:10:43.442Z,15.93
2017-12-01T17:13:14.842Z,14.03
2017-12-01T17:15:47.557Z,13.20
2017-12-01T17:18:19.106Z,15.43
2017-12-01T17:23:26.634Z,14.97
2017-12-01T17:25:55.194Z,16.80
2017-12-01T17:28:23.594Z,16.67
2017-12-01T17:30:51.966Z,13.60
2017-12-01T17:33:20.528Z,15.73
2017-12-01T17:35:48.939Z,16.90
2017-12-01T17:40:49.986Z,15.10
2017-12-01T17:43:18.428Z,15.63
2017-12-01T17:45:46.857Z,14.03
2017-12-01T17:48:15.207Z,16.50
2017-12-01T17:50:49.353Z,16.43
2017-12-01T17:53:35.296Z,17.00
2017-12-01T17:56:22.810Z,16.23
2017-12-01T17:58:55.297Z,17.47
2017-12-01T18:07:07.078Z,17.00
2017-12-01T18:12:48.294Z,19.50
2017-12-01T18:15:16.892Z,18.50
2017-12-01T18:17:47.865Z,23.53
2017-12-01T18:20:16.329Z,18.33
2017-12-01T18:28:13.565Z,19.13
2017-12-01T18:30:56.717Z,20.40
2017-12-01T18:33:25.128Z,15.33
2017-12-01T18:35:53.541Z,18.30
2017-12-01T18:43:38.721Z,20.33
2017-12-01T18:46:07.588Z,18.83
2017-12-01T18:48:35.963Z,19.40
2017-12-01T18:51:04.805Z,21.90
2017-12-01T18:53:33.308Z,19.40
2017-12-01T18:56:01.656Z,20.90
2017-12-01T18:58:29.992Z,21.57
2017-12-01T19:00:58.624Z,21.17
2017-12-01T19:03:27.210Z,20.23
2017-12-01T19:05:55.608Z,22.20
2017-12-01T19:08:23.968Z,21.90
2017-12-01T19:10:52.318Z,22.40
2017-12-01T19:13:21.380Z,22.80
2017-12-01T19:15:52.985Z,21.50
2017-12-01T19:18:21.757Z,24.10
2017-12-01T19:20:50.194Z,20.80
2017-12-01T19:23:19.159Z,21.40
2017-12-01T19:31:26.211Z,22.43
2017-12-01T19:36:27.691Z,21.63
2017-12-01T19:38:56.053Z,22.87
2017-12-01T19:41:27.394Z,22.57
2017-12-01T19:49:03.452Z,24.73
2017-12-01T19:54:05.191Z,23.10
2017-12-01T19:59:09.398Z,25.77
2017-12-01T20:01:37.889Z,24.53
2017-12-01T20:09:13.485Z,25.87
2017-12-01T20:11:41.936Z,24.30
2017-12-01T20:14:10.305Z,26.40
2017-12-01T20:24:17.976Z,27.20
2017-12-01T20:26:46.299Z,28.23
2017-12-01T20:34:23.168Z,28.40
2017-12-01T20:36:51.492Z,28.17
2017-12-01T20:44:26.800Z,29.40
2017-12-01T20:46:55.706Z,27.47
2017-12-01T20:49:24.091Z,28.60
2017-12-01T20:51:52.448Z,28.10
2017-12-01T20:54:20.794Z,25.33
2017-12-01T20:56:49.174Z,27.57
2017-12-01T20:59:18.923Z,29.70
2017-12-01T21:01:47.268Z,29.83
2017-12-01T21:04:15.605Z,31.83
2017-12-01T21:11:49.372Z,32.37
2017-12-01T21:16:54.638Z,31.47
2017-12-01T21:19:22.945Z,30.67
2017-12-01T21:21:51.332Z,29.50
2017-12-01T21:24:19.813Z,33.10
2017-12-01T21:26:48.208Z,30.60
2017-12-01T21:31:50.042Z,29.60
2017-12-01T21:34:18.429Z,31.40
2017-12-01T21:39:19.453Z,31.83
2017-12-01T21:41:47.939Z,35.10
2017-12-01T21:44:18.116Z,36.97
2017-12-01T21:46:46.736Z,39.03
2017-12-01T21:51:48.440Z,37.10
2017-12-01T21:54:16.913Z,34.87
2017-12-01T21:56:45.331Z,35.90
2017-12-01T21:59:17.273Z,37.77
2017-12-01T22:01:50.972Z,34.27
2017-12-01T22:04:19.538Z,37.00
2017-12-01T22:06:47.937Z,35.53
2017-12-01T22:11:50.302Z,36.00
2017-12-01T22:14:19.046Z,34.70
2017-12-01T22:19:23.868Z,39.93
2017-12-01T22:21:52.292Z,40.70
2017-12-01T22:24:21.649Z,40.27
2017-12-01T22:26:50.097Z,36.97
2017-12-01T22:29:18.449Z,39.90
2017-12-01T22:31:46.761Z,37.50
2017-12-01T22:34:15.112Z,39.27
2017-12-01T22:36:47.372Z,41.80
2017-12-01T22:39:16.447Z,42.33
2017-12-01T22:41:44.778Z,46.80
2017-12-01T22:46:49.054Z,34.57
2017-12-01T22:49:17.382Z,41.43
2017-12-01T22:59:23.549Z,42.03
2017-12-01T23:04:24.417Z,42.73
2017-12-01T23:06:54.652Z,41.07
2017-12-01T23:09:26.980Z,42.53
2017-12-01T23:11:55.417Z,42.13
2017-12-01T23:14:23.736Z,35.37
2017-12-01T23:16:53.738Z,36.70
2017-12-01T23:19:22.475Z,34.40
2017-12-01T23:21:50.792Z,34.00
2017-12-01T23:24:19.168Z,33.53
2017-12-01T23:26:47.507Z,34.13
2017-12-01T23:29:15.851Z,34.43
2017-12-01T23:31:47.935Z,28.60
2017-12-01T23:34:16.256Z,29.60
2017-12-01T23:36:44.604Z,25.27
2017-12-01T23:39:14.027Z,25.13
2017-12-01T23:41:42.413Z,24.90
2017-12-01T23:44:10.758Z,26.57
2017-12-01T23:46:39.154Z,29.00
2017-12-01T23:49:07.517Z,29.60
2017-12-01T23:51:35.900Z,30.03
2017-12-01T23:54:04.265Z,31.60
2017-12-01T23:56:36.328Z,31.53
2017-12-01T23:59:04.757Z,31.30
